Participated 1 time
in 1939
Albert Goutal, France
Tour de France 2026 starts from Barcelona, Spain in

Stats and Facts from
Tour de France.

2026   2025   2024   2023  2022  2021  2020  2019   2018  2017   2016   2015  2014  2013   2012   2011  2010   2009   2008   2007   2006   2005   2004   2003   2002   2001   2000   1999   1998   1997  1996   1995   1994   1993   1992  1991   1990   1989   1988   1987   1986   1985   1984   1983  1982  1981   1980   1979  1978  1977   1976  1975  1974  1973   1972   1971   1970  1969   1968   1967   1966   1965  1964  1963   1962   1961   1960   1959   1958   1957  1956   1955   1954   1953   1952  1951  1950  1949   1948  1947  1939   1938   1937   1936   1935   1934   1933  1932   1931   1930  1929   1928   1927   1926  1925  1924  1923   1922   1921   1920   1919  1914   1913   1912   1911   1910  1909   1908   1907   1906  1905  1904   1903 

Tourstats
Sitemap

After stage 21 - 2025:
 16451 starters.
  5464 different riders.
  689 teams.
  2398 stages.
  470 restdays.
  466506.50 km.
  5925 abandoned riders.

Click map for 1952 route.
Facts from Tour de France 1952 Additional info and images from 1952.
  |   Stages.  |   Stage winners.  |   Days in jerseys.  |   Teams.  |   All riders.  |   All riders by age.  |   All riders from.  |  

  |   Rookies.  |   Withdrawls.  |   Average speed.  |   GC.  |   Polka  |   Green  |   White  |   Summits. (In tour)  |   Miscellaneous.  |  

Stage 15 on July 10th. 1952
Pick a stage:  1  2  3  4  5  6  7  8  9  10  11  12  13  14  15  16  17  18  19  20  21  22  23  

After stage 15:    Fausto Coppi  
  AvignonPerpignan | Dist: 275.00km. | Winner: Georges Decaux

Podium

Average speed for all riders in stage:  36,516 km./hr.

2
 Giovanni Corrieri  Italy07h 16' 09"+  00:08:53 =37,831  km/h

3
 Ahmed Kebaïli  North Africa07h 25' 50"+  00:18:34 =37,009  km/h

4  Henk Faanhof  Holland07h 31' 47"+  00:24:31 =36,522  km/h

5  José Pérez  Spain07h 31' 48"+  00:24:32 =36,521  km/h

6  Johny Goedert  Luxembourg07h 31' 52"+  00:24:36 =36,515  km/h

1
 Georges Decaux  Paris07h 31' 55"+  00:24:39 =36,511  km/h

7  Settimo Sabbadini  Ouest-Sud Ouest07h 31' 55"+  00:24:39 =36,511  km/h

8  Jacques Marinelli  Paris07h 31' 55"+  00:24:39 =36,511  km/h

9  Antonin Rolland  France07h 31' 55"+  00:24:39 =36,511  km/h

10  Henri Paret  North Africa07h 31' 55"+  00:24:39 =36,511  km/h

11  Guy Lapébie  Ouest-Sud Ouest07h 31' 55"+  00:24:39 =36,511  km/h

12  Mario Baroni  Italy07h 31' 55"+  00:24:39 =36,511  km/h

13  Eugène Telotte  Paris07h 31' 55"+  00:24:39 =36,511  km/h

14  Wim van Est  Holland07h 31' 55"+  00:24:39 =36,511  km/h

15  Jean Bertaina  Sud Est07h 31' 55"+  00:24:39 =36,511  km/h

15  Jean-Baptiste Dotto  France07h 31' 55"+  00:24:39 =36,511  km/h

15  Wout Wagtmans  Holland07h 31' 55"+  00:24:39 =36,511  km/h

15  Bernard Gauthier  France07h 31' 55"+  00:24:39 =36,511  km/h

15  Jean Robic  France07h 31' 55"+  00:24:39 =36,511  km/h

15  Raphaël Geminiani  France07h 31' 55"+  00:24:39 =36,511  km/h

15  Gilbert Bauvin  Nord Est-Centre07h 31' 55"+  00:24:39 =36,511  km/h

15  Bernardo Ruíz  Spain07h 31' 55"+  00:24:39 =36,511  km/h

15  Gerrit Voorting  Holland07h 31' 55"+  00:24:39 =36,511  km/h

15  Jean Malléjac  Ouest-Sud Ouest07h 31' 55"+  00:24:39 =36,511  km/h

15  Maurice Quentin  France07h 31' 55"+  00:24:39 =36,511  km/h

15  Alexandre Close  Belgium07h 31' 55"+  00:24:39 =36,511  km/h

15  Andrès Trobat  Spain07h 31' 55"+  00:24:39 =36,511  km/h

15  Nello Lauredi  France07h 31' 55"+  00:24:39 =36,511  km/h

15  Stan Ockers  Belgium07h 31' 55"+  00:24:39 =36,511  km/h

15  Jan Nolten  Holland07h 31' 55"+  00:24:39 =36,511  km/h

15  José Serra Gil  Spain07h 31' 55"+  00:24:39 =36,511  km/h

15  Adolphe Deledda  Nord Est-Centre07h 31' 55"+  00:24:39 =36,511  km/h

15  Pierre Pardoën  Nord Est-Centre07h 31' 55"+  00:24:39 =36,511  km/h

15  José Gil Sole  Spain07h 31' 55"+  00:24:39 =36,511  km/h

15  Giuseppe Mirando  Sud Est07h 31' 55"+  00:24:39 =36,511  km/h

15  Vincent Vitetta  Sud Est07h 31' 55"+  00:24:39 =36,511  km/h

15  Jean Le Guilly  Ouest-Sud Ouest07h 31' 55"+  00:24:39 =36,511  km/h

15  Jacques Vivier  Ouest-Sud Ouest07h 31' 55"+  00:24:39 =36,511  km/h

15  Antonio Gelabert  Spain07h 31' 55"+  00:24:39 =36,511  km/h

15  Luciano Pezzi  Italy07h 31' 55"+  00:24:39 =36,511  km/h

15  Lucien Lazarides  France07h 31' 55"+  00:24:39 =36,511  km/h

15  Pierre Molineris  Sud Est07h 31' 55"+  00:24:39 =36,511  km/h

15  Raoul Remy  France07h 31' 55"+  00:24:39 =36,511  km/h

15  Lucien Teisseire  France07h 31' 55"+  00:24:39 =36,511  km/h

15  Marcel Fernandez  North Africa07h 31' 55"+  00:24:39 =36,511  km/h

15  Thijs Roks  Holland07h 31' 55"+  00:24:39 =36,511  km/h

15  Francisco Masip  Spain07h 31' 55"+  00:24:39 =36,511  km/h

15  Siro Bianchi  Sud Est07h 31' 55"+  00:24:39 =36,511  km/h

15  Gino Bartali  Italy07h 31' 55"+  00:24:39 =36,511  km/h

15  Carlo Lafranchi  Switzerland07h 31' 55"+  00:24:39 =36,511  km/h

15  Alois De Hertog  Belgium07h 31' 55"+  00:24:39 =36,511  km/h

15  Jean Goldschmit  Luxembourg07h 31' 55"+  00:24:39 =36,511  km/h

15  Jacques Renaud  Paris07h 31' 55"+  00:24:39 =36,511  km/h

15  Marcel Zelasco  North Africa07h 31' 55"+  00:24:39 =36,511  km/h

15  Heinrich Spuhler  Switzerland07h 31' 55"+  00:24:39 =36,511  km/h

15  Walter Diggelmann  Switzerland07h 31' 55"+  00:24:39 =36,511  km/h

15  Gottfried Weilenmann  Switzerland07h 31' 55"+  00:24:39 =36,511  km/h

15  Roger Decock  Belgium07h 31' 55"+  00:24:39 =36,511  km/h

15  Maurice Neyt  Belgium07h 31' 55"+  00:24:39 =36,511  km/h

15  André Rosseel  Belgium07h 31' 55"+  00:24:39 =36,511  km/h

15  Eduard Van Ende  Belgium07h 31' 55"+  00:24:39 =36,511  km/h

15  Giulio Bresci  Italy07h 31' 55"+  00:24:39 =36,511  km/h

15  Andrea Carrea  Italy07h 31' 55"+  00:24:39 =36,511  km/h

15  Fausto Coppi  Italy07h 31' 55"+  00:24:39 =36,511  km/h

15  Fiorenzo Crippa  Italy07h 31' 55"+  00:24:39 =36,511  km/h

15  Franco Franchi  Italy07h 31' 55"+  00:24:39 =36,511  km/h

15  Alfredo Martini  Italy07h 31' 55"+  00:24:39 =36,511  km/h

15  Ettore Milano  Italy07h 31' 55"+  00:24:39 =36,511  km/h

15  Robert Bonnaventure  France07h 31' 55"+  00:24:39 =36,511  km/h

15  Hans Dekkers  Holland07h 31' 55"+  00:24:39 =36,511  km/h

15  Jean De Gribaldy  Nord Est-Centre07h 31' 55"+  00:24:39 =36,511  km/h

15  Roger Rossinelli  Nord Est-Centre07h 31' 55"+  00:24:39 =36,511  km/h

15  Paul Giguet  Sud Est07h 31' 55"+  00:24:39 =36,511  km/h

15  Adolphe Pezzuli  Sud Est07h 31' 55"+  00:24:39 =36,511  km/h

15  André Bernard  Ouest-Sud Ouest07h 31' 55"+  00:24:39 =36,511  km/h

15  Jean Delahaye  Ouest-Sud Ouest07h 31' 55"+  00:24:39 =36,511  km/h

15  Raymond Scardin  Ouest-Sud Ouest07h 31' 55"+  00:24:39 =36,511  km/h

15  Vincent Soler  North Africa07h 31' 55"+  00:24:39 =36,511  km/h

15  Fiorenzo Magni  Italy07h 31' 55"+  00:24:39 =36,511  km/h

80  Hein Van Breenen  Holland07h 38' 57"+  00:31:41 =35,952  km/h

81  Rene Rotta  Sud Est07h 42' 07"+  00:34:51 =35,705  km/h


Todays birthdays.

1889 • Adolphe Landon
1890 • Jules Lebreton
1904 • Julien Grujon
1909 • Erich Metze
1926 • Giovanni Rossi
1928 • Serge Blusson
1928 • Alois Vansteenkiste
1931 • André Dupré
1934 • Alfred Rüegg
1962 • Francisco Espinosa
1962 • Paul Kimmage
1963 • Federico Muñoz
1966 • Andrea Tafi
1971 • Emmanuel Magnien
1973 • Paolo Savoldelli
1985 • Mikhail Ignatyev

 

Optimized for Chrome - Edge
and Opera browsers.